createdAt,value
2023-05-21T00:00:22.338Z,100703.78
2023-05-21T00:02:49.462Z,100701.06
2023-05-21T00:05:18.360Z,100707.28
2023-05-21T00:07:45.959Z,100702.91
2023-05-21T00:10:12.634Z,100706.44
2023-05-21T00:12:39.337Z,100700.28
2023-05-21T00:15:06.455Z,100705.50
2023-05-21T00:17:34.064Z,100709.94
2023-05-21T00:20:02.177Z,100709.94
2023-05-21T00:22:28.844Z,100705.50
2023-05-21T00:24:55.552Z,100704.63
2023-05-21T00:27:22.353Z,100702.84
2023-05-21T00:29:48.941Z,100702.00
2023-05-21T00:32:15.822Z,100703.72
2023-05-21T00:34:42.481Z,100708.16
2023-05-21T00:37:10.115Z,100706.34
2023-05-21T00:39:37.043Z,100711.66
2023-05-21T00:42:04.095Z,100698.41
2023-05-21T00:44:34.461Z,100706.34
2023-05-21T00:47:02.233Z,100702.84
2023-05-21T00:49:29.095Z,100705.50
2023-05-21T00:51:55.813Z,100700.16
2023-05-21T00:54:22.546Z,100690.44
2023-05-21T00:56:49.228Z,100698.41
2023-05-21T00:59:16.604Z,100697.50
2023-05-21T01:01:46.475Z,100699.28
2023-05-21T01:04:15.282Z,100696.62
2023-05-21T01:06:42.622Z,100701.94
2023-05-21T01:09:09.966Z,100692.22
2023-05-21T01:11:41.178Z,100694.84
2023-05-21T01:14:11.200Z,100690.41
2023-05-21T01:16:40.384Z,100694.00
2023-05-21T01:19:07.280Z,100691.25
2023-05-21T01:21:36.060Z,100697.50
2023-05-21T01:24:05.575Z,100689.53
2023-05-21T01:26:33.789Z,100691.25
2023-05-21T01:29:00.472Z,100684.25
2023-05-21T01:31:31.728Z,100685.94
2023-05-21T01:33:58.649Z,100690.41
2023-05-21T01:36:26.808Z,100691.25
2023-05-21T01:39:18.133Z,100688.59
2023-05-21T01:41:45.472Z,100691.25
2023-05-21T01:44:12.269Z,100685.09
2023-05-21T01:46:38.939Z,100682.44
2023-05-21T01:49:05.980Z,100691.25
2023-05-21T01:51:33.302Z,100691.25
2023-05-21T01:53:59.979Z,100692.13
2023-05-21T01:56:28.660Z,100681.59
2023-05-21T01:58:59.631Z,100685.94
2023-05-21T02:01:27.513Z,100692.13
2023-05-21T02:03:54.278Z,100682.38
2023-05-21T02:06:21.224Z,100692.97
2023-05-21T02:08:48.454Z,100688.59
2023-05-21T02:11:15.517Z,100686.81
2023-05-21T02:13:42.867Z,100684.16
2023-05-21T02:16:14.763Z,100681.50
2023-05-21T02:18:43.637Z,100683.22
2023-05-21T02:21:13.252Z,100681.50
2023-05-21T02:23:39.934Z,100682.38
2023-05-21T02:26:06.625Z,100681.50
2023-05-21T02:28:34.116Z,100680.66
2023-05-21T02:31:01.236Z,100688.53
2023-05-21T02:33:28.029Z,100678.00
2023-05-21T02:35:54.738Z,100671.75
2023-05-21T02:38:23.330Z,100677.13
2023-05-21T02:40:51.087Z,100673.53
2023-05-21T02:43:17.799Z,100673.53
2023-05-21T02:45:44.618Z,100685.00
2023-05-21T02:48:12.252Z,100674.41
2023-05-21T02:50:39.045Z,100677.06
2023-05-21T02:53:06.319Z,100676.19
2023-05-21T02:55:33.105Z,100677.06
2023-05-21T02:57:59.842Z,100685.00
2023-05-21T03:00:26.479Z,100687.66
2023-05-21T03:02:53.311Z,100679.72
2023-05-21T03:05:20.097Z,100686.72
2023-05-21T03:07:46.926Z,100687.66
2023-05-21T03:10:13.632Z,100687.66
2023-05-21T03:12:40.349Z,100677.91
2023-05-21T03:15:07.408Z,100670.87
2023-05-21T03:17:34.195Z,100670.87
2023-05-21T03:20:00.912Z,100673.53
2023-05-21T03:22:27.565Z,100668.25
2023-05-21T03:24:54.390Z,100667.37
2023-05-21T03:27:21.309Z,100664.72
2023-05-21T03:29:47.971Z,100670.87
2023-05-21T03:32:14.874Z,100669.19
2023-05-21T03:34:41.770Z,100664.72
2023-05-21T03:37:10.787Z,100668.31
2023-05-21T03:39:37.439Z,100674.47
2023-05-21T03:42:04.257Z,100684.25
2023-05-21T03:44:32.548Z,100676.28
2023-05-21T03:46:59.245Z,100682.44
2023-05-21T03:49:26.807Z,100689.53
2023-05-21T03:51:54.579Z,100678.94
2023-05-21T03:54:21.195Z,100685.94
2023-05-21T03:56:47.837Z,100678.94
2023-05-21T03:59:14.489Z,100683.38
2023-05-21T04:01:41.098Z,100687.78
2023-05-21T04:04:07.822Z,100682.44
2023-05-21T04:06:34.618Z,100688.69
2023-05-21T04:09:01.254Z,100693.09
2023-05-21T04:11:27.889Z,100697.50
2023-05-21T04:13:54.625Z,100688.69
2023-05-21T04:16:21.253Z,100697.53
2023-05-21T04:18:48.152Z,100687.78
2023-05-21T04:21:14.966Z,100689.53
2023-05-21T04:23:41.681Z,100702.81
2023-05-21T04:26:08.384Z,100697.50
2023-05-21T04:28:35.483Z,100695.72
2023-05-21T04:31:02.292Z,100695.72
2023-05-21T04:33:30.548Z,100694.87
2023-05-21T04:35:57.784Z,100691.34
2023-05-21T04:38:24.485Z,100701.06
2023-05-21T04:40:51.143Z,100703.72
2023-05-21T04:43:18.183Z,100702.00
2023-05-21T04:45:45.174Z,100700.16
2023-05-21T04:48:12.718Z,100688.69
2023-05-21T04:50:41.663Z,100694.00
2023-05-21T04:53:08.441Z,100693.09
2023-05-21T04:55:39.824Z,100689.53
2023-05-21T04:58:07.344Z,100683.38
2023-05-21T05:00:34.497Z,100683.38
2023-05-21T05:03:01.308Z,100679.84
2023-05-21T05:05:28.071Z,100676.31
2023-05-21T05:07:54.854Z,100678.06
2023-05-21T05:10:21.460Z,100672.75
2023-05-21T05:12:48.726Z,100674.53
2023-05-21T05:15:16.054Z,100684.25
2023-05-21T05:17:42.792Z,100684.25
2023-05-21T05:20:10.067Z,100684.25
2023-05-21T05:22:36.801Z,100680.72
2023-05-21T05:25:03.555Z,100676.28
2023-05-21T05:27:30.552Z,100675.41
2023-05-21T05:29:59.274Z,100676.28
2023-05-21T05:32:28.311Z,100685.94
2023-05-21T05:34:55.015Z,100685.94
2023-05-21T05:37:21.708Z,100682.44
2023-05-21T05:39:48.457Z,100676.28
2023-05-21T05:42:15.168Z,100678.94
2023-05-21T05:44:41.759Z,100677.13
2023-05-21T05:47:11.246Z,100676.28
2023-05-21T05:49:38.089Z,100684.25
2023-05-21T05:52:05.140Z,100673.63
2023-05-21T05:54:31.773Z,100681.50
2023-05-21T05:56:58.436Z,100675.34
2023-05-21T05:59:25.134Z,100671.84
2023-05-21T06:01:51.777Z,100675.34
2023-05-21T06:04:18.418Z,100665.59
2023-05-21T06:06:45.115Z,100663.78
2023-05-21T06:09:12.055Z,100671.84
2023-05-21T06:11:38.822Z,100663.00
2023-05-21T06:14:05.527Z,100658.56
2023-05-21T06:16:32.366Z,100660.28
2023-05-21T06:18:59.312Z,100664.72
2023-05-21T06:21:26.030Z,100662.94
2023-05-21T06:23:52.812Z,100664.72
2023-05-21T06:26:19.866Z,100653.25
2023-05-21T06:28:46.499Z,100654.97
2023-05-21T06:31:13.696Z,100648.81
2023-05-21T06:33:40.730Z,100648.81
2023-05-21T06:36:07.713Z,100640.84
2023-05-21T06:38:34.457Z,100638.19
2023-05-21T06:41:02.026Z,100641.72
2023-05-21T06:43:28.903Z,100640.00
2023-05-21T06:45:55.631Z,100635.53
2023-05-21T06:48:22.306Z,100635.47
2023-05-21T06:50:48.965Z,100635.53
2023-05-21T06:53:16.542Z,100639.91
2023-05-21T06:55:46.080Z,100635.47
2023-05-21T06:58:12.896Z,100640.78
2023-05-21T07:00:39.537Z,100631.97
2023-05-21T07:03:08.303Z,100620.41
2023-05-21T07:05:35.396Z,100631.88
2023-05-21T07:08:02.228Z,100622.16
2023-05-21T07:10:30.889Z,100628.31
2023-05-21T07:12:57.529Z,100629.19
2023-05-21T07:15:24.114Z,100625.59
2023-05-21T07:17:50.875Z,100625.59
2023-05-21T07:20:20.212Z,100625.50
2023-05-21T07:22:46.860Z,100621.06
2023-05-21T07:25:13.486Z,100625.38
2023-05-21T07:27:40.229Z,100622.72
2023-05-21T07:30:07.993Z,100616.50
2023-05-21T07:32:34.684Z,100614.66
2023-05-21T07:35:04.055Z,100608.44
2023-05-21T07:37:30.762Z,100620.72
2023-05-21T07:39:57.630Z,100618.09
2023-05-21T07:42:24.801Z,100618.94
2023-05-21T07:44:51.423Z,100624.25
2023-05-21T07:47:18.185Z,100622.44
2023-05-21T07:49:44.867Z,100628.56
2023-05-21T07:52:11.486Z,100617.09
2023-05-21T07:54:38.107Z,100618.81
2023-05-21T07:57:05.030Z,100622.31
2023-05-21T07:59:31.816Z,100620.47
2023-05-21T08:01:59.048Z,100619.53
2023-05-21T08:04:26.354Z,100621.34
2023-05-21T08:06:53.909Z,100626.59
2023-05-21T08:09:21.711Z,100618.62
2023-05-21T08:11:48.507Z,100618.56
2023-05-21T08:14:15.193Z,100607.94
2023-05-21T08:16:42.172Z,100607.88
2023-05-21T08:19:09.070Z,100619.34
2023-05-21T08:21:35.704Z,100615.81
2023-05-21T08:24:03.065Z,100620.16
2023-05-21T08:26:29.756Z,100613.91
2023-05-21T08:28:56.675Z,100622.72
2023-05-21T08:31:23.385Z,100622.72
2023-05-21T08:33:51.617Z,100621.78
2023-05-21T08:36:20.710Z,100612.91
2023-05-21T08:38:52.471Z,100619.09
2023-05-21T08:41:19.495Z,100617.38
2023-05-21T08:43:48.049Z,100617.28
2023-05-21T08:46:17.015Z,100620.78
2023-05-21T08:48:43.886Z,100620.72
2023-05-21T08:51:10.635Z,100618.06
2023-05-21T08:53:37.616Z,100613.63
2023-05-21T08:56:04.512Z,100611.78
2023-05-21T08:58:32.566Z,100617.94
2023-05-21T09:00:59.616Z,100617.00
2023-05-21T09:03:26.949Z,100624.97
2023-05-21T09:05:56.778Z,100617.84
2023-05-21T09:08:29.939Z,100614.34
2023-05-21T09:10:56.613Z,100618.66
2023-05-21T09:13:23.356Z,100618.59
2023-05-21T09:15:51.500Z,100619.53
2023-05-21T09:18:20.767Z,100620.28
2023-05-21T09:20:47.515Z,100617.66
2023-05-21T09:23:17.336Z,100606.16
2023-05-21T09:25:49.957Z,100606.03
2023-05-21T09:28:17.111Z,100613.06
2023-05-21T09:30:47.509Z,100611.34
2023-05-21T09:33:24.745Z,100609.53
2023-05-21T09:35:51.541Z,100612.12
2023-05-21T09:38:18.183Z,100605.88
2023-05-21T09:40:48.244Z,100609.41
2023-05-21T09:43:16.063Z,100606.81
2023-05-21T09:45:55.859Z,100602.31
2023-05-21T09:48:48.871Z,100610.19
2023-05-21T09:51:16.576Z,100601.28
2023-05-21T09:54:00.434Z,100610.91
2023-05-21T09:56:34.105Z,100612.72
2023-05-21T09:59:30.484Z,100605.66
2023-05-21T10:01:55.901Z,100606.50
2023-05-21T10:04:39.773Z,100600.28
2023-05-21T10:07:17.736Z,100598.41
2023-05-21T10:09:48.149Z,100592.25
2023-05-21T10:12:16.587Z,100586.09
2023-05-21T10:14:43.298Z,100593.09
2023-05-21T10:17:10.030Z,100593.09
2023-05-21T10:19:37.356Z,100593.97
2023-05-21T10:22:12.114Z,100585.13
2023-05-21T10:24:42.114Z,100584.19
2023-05-21T10:27:14.974Z,100576.22
2023-05-21T10:29:45.501Z,100574.44
2023-05-21T10:32:16.334Z,100579.75
2023-05-21T10:34:44.022Z,100577.97
2023-05-21T10:37:10.868Z,100570.88
2023-05-21T10:39:37.750Z,100577.09
2023-05-21T10:42:18.459Z,100582.47
2023-05-21T10:45:05.386Z,100576.22
2023-05-21T10:47:56.555Z,100579.84
2023-05-21T10:50:45.728Z,100571.78
2023-05-21T10:53:40.322Z,100570.00
2023-05-21T10:56:25.888Z,100564.72
2023-05-21T10:59:16.549Z,100575.31
2023-05-21T11:01:43.425Z,100570.00
2023-05-21T11:04:12.351Z,100574.44
2023-05-21T11:06:42.435Z,100554.12
2023-05-21T11:09:27.796Z,100553.28
2023-05-21T11:11:58.298Z,100562.06
2023-05-21T11:14:43.852Z,100555.00
2023-05-21T11:17:15.049Z,100564.72
2023-05-21T11:19:48.995Z,100562.97
2023-05-21T11:22:28.229Z,100560.31
2023-05-21T11:24:55.945Z,100555.06
2023-05-21T11:27:35.308Z,100554.22
2023-05-21T11:30:05.648Z,100557.72
2023-05-21T11:32:32.469Z,100554.12
2023-05-21T11:35:02.537Z,100557.72
2023-05-21T11:37:34.543Z,100551.56
2023-05-21T11:40:18.085Z,100545.31
2023-05-21T11:42:50.832Z,100550.72
2023-05-21T11:45:19.141Z,100548.06
2023-05-21T11:47:50.321Z,100545.41
2023-05-21T11:50:17.281Z,100536.56
2023-05-21T11:52:44.243Z,100547.19
2023-05-21T11:55:11.532Z,100546.25
2023-05-21T11:57:41.201Z,100544.53
2023-05-21T12:00:13.689Z,100539.22
2023-05-21T12:03:02.023Z,100533.06
2023-05-21T12:05:28.924Z,100542.75
2023-05-21T12:07:56.698Z,100529.53
2023-05-21T12:10:24.217Z,100533.13
2023-05-21T12:12:56.324Z,100529.53
2023-05-21T12:15:24.887Z,100531.31
2023-05-21T12:17:53.295Z,100520.69
2023-05-21T12:20:20.286Z,100520.69
2023-05-21T12:22:48.912Z,100518.91
2023-05-21T12:25:19.406Z,100523.34
2023-05-21T12:27:46.734Z,100522.50
2023-05-21T12:30:13.363Z,100522.50
2023-05-21T12:32:45.918Z,100520.78
2023-05-21T12:35:23.067Z,100512.81
2023-05-21T12:37:51.052Z,100511.87
2023-05-21T12:40:18.149Z,100513.66
2023-05-21T12:42:45.049Z,100500.47
2023-05-21T12:45:11.997Z,100505.72
2023-05-21T12:47:39.146Z,100515.47
2023-05-21T12:50:26.196Z,100504.84
2023-05-21T12:52:56.973Z,100497.66
2023-05-21T12:55:25.474Z,100490.63
2023-05-21T12:58:01.545Z,100491.56
2023-05-21T13:00:28.378Z,100483.63
2023-05-21T13:02:56.484Z,100481.91
2023-05-21T13:05:23.177Z,100474.78
2023-05-21T13:07:51.620Z,100483.63
2023-05-21T13:10:18.446Z,100478.31
2023-05-21T13:12:45.623Z,100480.00
2023-05-21T13:15:12.428Z,100475.66
2023-05-21T13:17:39.150Z,100481.91
2023-05-21T13:20:15.988Z,100476.59
2023-05-21T13:22:45.246Z,100461.50
2023-05-21T13:25:12.317Z,100472.13
2023-05-21T13:27:39.558Z,100457.16
2023-05-21T13:30:06.997Z,100459.72
2023-05-21T13:32:33.946Z,100457.16
2023-05-21T13:35:00.889Z,100452.69
2023-05-21T13:37:27.596Z,100450.03
2023-05-21T13:39:54.260Z,100449.09
2023-05-21T13:42:21.291Z,100450.03
2023-05-21T13:44:48.098Z,100450.91
2023-05-21T13:47:14.747Z,100442.94
2023-05-21T13:49:41.535Z,100445.59
2023-05-21T13:52:08.432Z,100434.97
2023-05-21T13:54:35.532Z,100434.97
2023-05-21T13:57:03.489Z,100436.75
2023-05-21T13:59:31.977Z,100441.13
2023-05-21T14:02:00.301Z,100434.97
2023-05-21T14:04:26.981Z,100434.97
2023-05-21T14:06:53.612Z,100435.06
2023-05-21T14:09:20.403Z,100427.94
2023-05-21T14:11:47.137Z,100429.75
2023-05-21T14:14:18.769Z,100434.13
2023-05-21T14:16:47.155Z,100432.41
2023-05-21T14:19:14.003Z,100427.00
2023-05-21T14:21:41.059Z,100437.63
2023-05-21T14:24:07.763Z,100431.47
2023-05-21T14:26:36.790Z,100427.09
2023-05-21T14:29:03.493Z,100429.75
2023-05-21T14:31:30.257Z,100424.44
2023-05-21T14:33:56.921Z,100422.63
2023-05-21T14:36:23.542Z,100420.03
2023-05-21T14:38:50.196Z,100427.94
2023-05-21T14:41:16.960Z,100426.16
2023-05-21T14:43:44.750Z,100421.78
2023-05-21T14:46:11.573Z,100422.63
2023-05-21T14:48:38.339Z,100413.81
2023-05-21T14:51:05.047Z,100419.13
2023-05-21T14:53:32.300Z,100422.63
2023-05-21T14:55:59.080Z,100408.50
2023-05-21T14:58:25.738Z,100415.53
2023-05-21T15:00:52.421Z,100405.84
2023-05-21T15:03:19.166Z,100413.81
2023-05-21T15:05:48.420Z,100410.22
2023-05-21T15:08:15.497Z,100407.66
2023-05-21T15:10:42.167Z,100408.50
2023-05-21T15:13:08.828Z,100406.72
2023-05-21T15:15:35.999Z,100398.75
2023-05-21T15:18:03.053Z,100402.25
2023-05-21T15:20:29.802Z,100394.38
2023-05-21T15:23:15.300Z,100405.00
2023-05-21T15:25:45.390Z,100404.91
2023-05-21T15:28:12.244Z,100402.34
2023-05-21T15:30:39.269Z,100396.09
2023-05-21T15:33:06.184Z,100401.41
2023-05-21T15:35:33.174Z,100403.19
2023-05-21T15:38:00.050Z,100400.53
2023-05-21T15:40:27.368Z,100394.38
2023-05-21T15:42:54.325Z,100389.91
2023-05-21T15:45:21.140Z,100397.88
2023-05-21T15:47:48.043Z,100394.38
2023-05-21T15:50:14.838Z,100394.38
2023-05-21T15:52:42.300Z,100394.38
2023-05-21T15:55:09.435Z,100396.09
2023-05-21T15:57:36.196Z,100404.09
2023-05-21T16:00:03.942Z,100408.50
2023-05-21T16:02:30.713Z,100410.22
2023-05-21T16:04:57.443Z,100402.25
2023-05-21T16:07:24.527Z,100405.84
2023-05-21T16:09:51.266Z,100405.84
2023-05-21T16:12:18.157Z,100409.41
2023-05-21T16:14:44.945Z,100408.50
2023-05-21T16:17:11.738Z,100405.84
2023-05-21T16:19:39.065Z,100410.31
2023-05-21T16:22:06.306Z,100416.47
2023-05-21T16:24:33.761Z,100413.81
2023-05-21T16:27:00.860Z,100412.97
2023-05-21T16:29:27.491Z,100415.63
2023-05-21T16:31:54.151Z,100421.78
2023-05-21T16:34:20.984Z,100417.38
2023-05-21T16:36:47.630Z,100411.16
2023-05-21T16:39:14.513Z,100423.50
2023-05-21T16:41:41.508Z,100420.91
2023-05-21T16:44:08.178Z,100414.72
2023-05-21T16:46:34.902Z,100415.63
2023-05-21T16:49:01.681Z,100422.63
2023-05-21T16:51:28.329Z,100419.13
2023-05-21T16:53:54.970Z,100416.47
2023-05-21T16:56:21.895Z,100421.78
2023-05-21T16:58:48.603Z,100417.38
2023-05-21T17:01:15.239Z,100424.44
2023-05-21T17:03:43.329Z,100425.28
2023-05-21T17:06:10.380Z,100428.88
2023-05-21T17:08:37.062Z,100427.09
2023-05-21T17:11:03.734Z,100432.41
2023-05-21T17:13:30.794Z,100429.66
2023-05-21T17:15:57.610Z,100430.59
2023-05-21T17:18:24.406Z,100434.19
2023-05-21T17:20:51.184Z,100429.75
2023-05-21T17:23:18.162Z,100431.53
2023-05-21T17:25:44.926Z,100425.34
2023-05-21T17:28:11.586Z,100432.41
2023-05-21T17:30:38.739Z,100433.25
2023-05-21T17:33:06.540Z,100427.09
2023-05-21T17:35:34.295Z,100432.41
2023-05-21T17:38:01.051Z,100431.53
2023-05-21T17:40:27.699Z,100432.41
2023-05-21T17:42:54.554Z,100430.59
2023-05-21T17:45:21.317Z,100424.44
2023-05-21T17:47:48.120Z,100429.75
2023-05-21T17:50:15.127Z,100427.09
2023-05-21T17:52:41.781Z,100432.41
2023-05-21T17:55:08.969Z,100433.31
2023-05-21T17:57:36.100Z,100432.41
2023-05-21T18:00:04.978Z,100433.25
2023-05-21T18:02:31.888Z,100439.41
2023-05-21T18:04:58.651Z,100435.91
2023-05-21T18:07:25.728Z,100434.13
2023-05-21T18:09:52.504Z,100434.13
2023-05-21T18:12:19.189Z,100432.41
2023-05-21T18:14:45.942Z,100431.53
2023-05-21T18:17:12.874Z,100437.72
2023-05-21T18:19:39.651Z,100431.53
2023-05-21T18:22:06.564Z,100427.09
2023-05-21T18:24:33.317Z,100430.59
2023-05-21T18:26:59.972Z,100425.28
2023-05-21T18:29:29.429Z,100430.59
2023-05-21T18:31:56.368Z,100429.66
2023-05-21T18:34:23.055Z,100429.75
2023-05-21T18:36:49.717Z,100432.41
2023-05-21T18:39:16.390Z,100431.53
2023-05-21T18:41:43.186Z,100439.41
2023-05-21T18:44:09.815Z,100441.22
2023-05-21T18:46:37.688Z,100441.22
2023-05-21T18:49:04.981Z,100441.22
2023-05-21T18:51:31.844Z,100447.37
2023-05-21T18:53:58.737Z,100445.59
2023-05-21T18:56:25.947Z,100435.91
2023-05-21T18:58:52.653Z,100447.37
2023-05-21T19:01:19.298Z,100444.72
2023-05-21T19:03:45.971Z,100446.53
2023-05-21T19:06:12.605Z,100449.19
2023-05-21T19:08:40.495Z,100451.84
2023-05-21T19:11:07.357Z,100452.69
2023-05-21T19:13:34.295Z,100450.97
2023-05-21T19:16:02.177Z,100460.66
2023-05-21T19:18:32.508Z,100455.34
2023-05-21T19:21:02.780Z,100461.50
2023-05-21T19:23:33.760Z,100460.66
2023-05-21T19:26:05.023Z,100473.94
2023-05-21T19:28:31.701Z,100472.13
2023-05-21T19:30:58.338Z,100475.66
2023-05-21T19:33:25.187Z,100478.31
2023-05-21T19:35:51.926Z,100478.31
2023-05-21T19:38:18.620Z,100477.44
2023-05-21T19:40:45.466Z,100474.78
2023-05-21T19:43:12.904Z,100476.50
2023-05-21T19:45:39.621Z,100470.34
2023-05-21T19:48:07.047Z,100479.16
2023-05-21T19:50:34.265Z,100470.34
2023-05-21T19:53:01.134Z,100474.72
2023-05-21T19:55:28.430Z,100480.09
2023-05-21T19:57:55.147Z,100483.63
2023-05-21T20:00:22.363Z,100478.31
2023-05-21T20:02:49.020Z,100483.63
2023-05-21T20:05:16.315Z,100481.81
2023-05-21T20:07:43.787Z,100480.00
2023-05-21T20:10:10.664Z,100480.00
2023-05-21T20:12:37.899Z,100479.16
2023-05-21T20:15:07.922Z,100484.47
2023-05-21T20:17:36.086Z,100475.56
2023-05-21T20:20:06.182Z,100472.91
2023-05-21T20:22:33.082Z,100480.87
2023-05-21T20:25:01.749Z,100480.87
2023-05-21T20:27:28.450Z,100477.31
2023-05-21T20:29:55.144Z,100482.66
2023-05-21T20:32:21.761Z,100483.53
2023-05-21T20:35:02.167Z,100472.91
2023-05-21T20:37:29.943Z,100480.00
2023-05-21T20:39:59.997Z,100480.87
2023-05-21T20:42:28.631Z,100476.41
2023-05-21T20:44:55.543Z,100478.22
2023-05-21T20:47:23.393Z,100473.75
2023-05-21T20:49:53.762Z,100474.72
2023-05-21T20:52:20.925Z,100478.16
2023-05-21T20:54:48.932Z,100484.37
2023-05-21T20:57:16.120Z,100482.62
2023-05-21T20:59:43.356Z,100476.41
2023-05-21T21:02:11.566Z,100479.06
2023-05-21T21:04:39.779Z,100477.31
2023-05-21T21:07:08.169Z,100478.16
2023-05-21T21:09:34.831Z,100469.34
2023-05-21T21:12:11.343Z,100478.16
2023-05-21T21:14:48.102Z,100475.50
2023-05-21T21:17:14.853Z,100479.06
2023-05-21T21:19:41.594Z,100483.47
2023-05-21T21:22:08.321Z,100480.81
2023-05-21T21:24:34.989Z,100478.16
2023-05-21T21:27:01.729Z,100479.88
2023-05-21T21:29:28.389Z,100475.41
2023-05-21T21:31:55.081Z,100479.88
2023-05-21T21:34:23.596Z,100477.22
2023-05-21T21:36:52.722Z,100479.88
2023-05-21T21:39:19.390Z,100492.28
2023-05-21T21:41:48.411Z,100492.28
2023-05-21T21:44:15.093Z,100491.44
2023-05-21T21:46:41.788Z,100486.91
2023-05-21T21:49:08.459Z,100508.13
2023-05-21T21:51:35.325Z,100498.47
2023-05-21T21:54:02.257Z,100501.13
2023-05-21T21:56:29.594Z,100501.97
2023-05-21T21:58:56.283Z,100506.44
2023-05-21T22:01:22.992Z,100507.28
2023-05-21T22:03:49.960Z,100504.63
2023-05-21T22:06:16.631Z,100497.53
2023-05-21T22:08:43.431Z,100505.50
2023-05-21T22:11:10.246Z,100502.81
2023-05-21T22:13:37.765Z,100500.19
2023-05-21T22:16:05.485Z,100489.56
2023-05-21T22:18:41.467Z,100502.81
2023-05-21T22:21:10.021Z,100494.87
2023-05-21T22:23:37.489Z,100496.66
2023-05-21T22:26:04.344Z,100500.19
2023-05-21T22:28:30.975Z,100498.37
2023-05-21T22:30:58.404Z,100499.31
2023-05-21T22:33:25.169Z,100509.00
2023-05-21T22:35:51.900Z,100506.34
2023-05-21T22:38:18.601Z,100517.91
2023-05-21T22:40:45.253Z,100514.31
2023-05-21T22:43:11.930Z,100519.63
2023-05-21T22:45:38.560Z,100519.63
2023-05-21T22:48:08.520Z,100501.87
2023-05-21T22:50:36.079Z,100506.34
2023-05-21T22:53:02.982Z,100524.00
2023-05-21T22:55:29.774Z,100525.78
2023-05-21T22:57:58.692Z,100508.06
2023-05-21T23:00:26.135Z,100505.41
2023-05-21T23:02:54.590Z,100514.25
2023-05-21T23:05:21.833Z,100523.12
2023-05-21T23:07:48.504Z,100509.84
2023-05-21T23:10:15.102Z,100505.41
2023-05-21T23:12:41.766Z,100508.94
2023-05-21T23:15:10.029Z,100508.94
2023-05-21T23:17:37.361Z,100519.56
2023-05-21T23:20:04.732Z,100507.16
2023-05-21T23:22:31.755Z,100506.28
2023-05-21T23:24:58.428Z,100506.28
2023-05-21T23:27:25.131Z,100516.03
2023-05-21T23:29:51.772Z,100521.28
2023-05-21T23:32:18.493Z,100511.59
2023-05-21T23:34:45.136Z,100514.25
2023-05-21T23:37:12.102Z,100518.63
2023-05-21T23:39:38.750Z,100523.09
2023-05-21T23:42:06.020Z,100516.91
2023-05-21T23:44:32.675Z,100515.13
2023-05-21T23:47:01.674Z,100508.00
2023-05-21T23:49:28.428Z,100516.91
2023-05-21T23:51:55.124Z,100515.97
2023-05-21T23:54:21.830Z,100507.06
2023-05-21T23:56:48.470Z,100497.38
2023-05-21T23:59:17.597Z,100492.94
